Terminal Aerodrome Forecast
Issued by NWS

Home | Current Version | Previous Version | Text Only | Print | Product List | Glossary On
Versions: 1 2 3 4 5 6 7 8 9 10 11 12 13 14 15 16 17 18 19
000
FTUS44 KHGX 192326
TAFLBX
TAF
KLBX 192326Z 2000/2024 08006KT P6SM -RA BKN013 OVC080
      TEMPO 2000/2001 -RA SCT010 OVC025
     FM200100 13011KT P6SM OVC015
     FM200400 11010KT 6SM BR OVC007
      TEMPO 2007/2009 3SM BR OVC006
     FM200900 15003KT 1SM BR OVC004
     FM201500 18007KT P6SM VCSH BKN005 OVC011
     FM201800 18013KT P6SM VCSH SCT007 OVC015=

USA.gov is the U.S. government's official web portal to all federal, state and local government web resources and services.